RKTN/TAE METAR and TAF weather

Enter ICAO airport designator
Station Type Date Time Source
RKTN METAR 2021/05/13 00:00 UTC NOAA

RKTN 130000Z 21001KT CAVOK 18/09 Q1013


Station Type Date Time Source
RKTN Decoded METAR 2021/05/13 00:00 UTC NOAA

Taegu Ab, Korea, South (RKTN) 35-54N 128-39E 37M
May 12, 2021 - 08:00 PM EDT / 2021.05.13 0000 UTC
Wind: from the SSW (210 degrees) at 1 MPH (1 KT):0
Visibility: greater than 7 mile(s):0
Temperature: 64 F (18 C)
Dew Point: 48 F (9 C)
Relative Humidity: 55%
Pressure (altimeter): 29.91 in. Hg (1013 hPa)
ob: RKTN 130000Z 21001KT CAVOK 18/09 Q1013
cycle: 0

Station Type Date Time Source
RKTN TAF 2021/05/12 18:06 UTC NOAA

TAF RKTN 121700Z 1218/1324 12006KT 9999 SCT030 SCT200 TN12/1221Z TX30/1306Z

Example: see airport list